sensor_id;sensor_type;location;lat;lon;timestamp;P1;durP1;ratioP1;P2;durP2;ratioP2
7475;SDS011;3779;49.216;8.650;2023-02-04T00:00:05;2.60;;;2.10;;
7475;SDS011;3779;49.216;8.650;2023-02-04T00:02:52;3.13;;;2.23;;
7475;SDS011;3779;49.216;8.650;2023-02-04T00:05:38;2.23;;;2.10;;
7475;SDS011;3779;49.216;8.650;2023-02-04T00:08:24;2.30;;;2.10;;
7475;SDS011;3779;49.216;8.650;2023-02-04T00:11:10;2.50;;;2.30;;
7475;SDS011;3779;49.216;8.650;2023-02-04T00:13:56;2.30;;;2.10;;
7475;SDS011;3779;49.216;8.650;2023-02-04T00:16:42;3.27;;;1.90;;
7475;SDS011;3779;49.216;8.650;2023-02-04T00:19:28;2.50;;;2.30;;
7475;SDS011;3779;49.216;8.650;2023-02-04T00:22:14;2.03;;;1.93;;
7475;SDS011;3779;49.216;8.650;2023-02-04T00:25:01;2.50;;;2.30;;
7475;SDS011;3779;49.216;8.650;2023-02-04T00:27:47;2.97;;;2.60;;
7475;SDS011;3779;49.216;8.650;2023-02-04T00:30:33;2.50;;;2.30;;
7475;SDS011;3779;49.216;8.650;2023-02-04T00:33:21;2.43;;;2.23;;
7475;SDS011;3779;49.216;8.650;2023-02-04T00:36:07;2.60;;;2.40;;
7475;SDS011;3779;49.216;8.650;2023-02-04T00:38:53;2.90;;;2.50;;
7475;SDS011;3779;49.216;8.650;2023-02-04T00:41:39;2.50;;;2.30;;
7475;SDS011;3779;49.216;8.650;2023-02-04T00:44:26;2.30;;;2.10;;
7475;SDS011;3779;49.216;8.650;2023-02-04T00:47:11;2.63;;;2.10;;
7475;SDS011;3779;49.216;8.650;2023-02-04T00:49:57;2.50;;;2.30;;
7475;SDS011;3779;49.216;8.650;2023-02-04T00:52:43;2.20;;;2.00;;
7475;SDS011;3779;49.216;8.650;2023-02-04T00:55:29;2.57;;;2.37;;
7475;SDS011;3779;49.216;8.650;2023-02-04T00:58:17;1.97;;;1.87;;
7475;SDS011;3779;49.216;8.650;2023-02-04T01:01:03;2.20;;;2.00;;
7475;SDS011;3779;49.216;8.650;2023-02-04T01:03:49;2.30;;;2.10;;
7475;SDS011;3779;49.216;8.650;2023-02-04T01:06:35;2.30;;;2.10;;
7475;SDS011;3779;49.216;8.650;2023-02-04T01:09:21;2.27;;;1.80;;
7475;SDS011;3779;49.216;8.650;2023-02-04T01:12:08;2.60;;;2.07;;
7475;SDS011;3779;49.216;8.650;2023-02-04T01:14:55;2.03;;;1.90;;
7475;SDS011;3779;49.216;8.650;2023-02-04T01:17:43;1.92;;;1.83;;
7475;SDS011;3779;49.216;8.650;2023-02-04T01:20:29;2.00;;;1.80;;
7475;SDS011;3779;49.216;8.650;2023-02-04T01:23:15;1.90;;;1.70;;
7475;SDS011;3779;49.216;8.650;2023-02-04T01:26:01;2.20;;;1.90;;
7475;SDS011;3779;49.216;8.650;2023-02-04T01:28:47;1.70;;;1.60;;
7475;SDS011;3779;49.216;8.650;2023-02-04T01:31:36;1.80;;;1.70;;
7475;SDS011;3779;49.216;8.650;2023-02-04T01:34:22;2.03;;;1.90;;
7475;SDS011;3779;49.216;8.650;2023-02-04T01:37:10;1.70;;;1.60;;
7475;SDS011;3779;49.216;8.650;2023-02-04T01:39:56;2.83;;;1.60;;
7475;SDS011;3779;49.216;8.650;2023-02-04T01:42:42;1.70;;;1.60;;
7475;SDS011;3779;49.216;8.650;2023-02-04T01:45:28;1.90;;;1.50;;
7475;SDS011;3779;49.216;8.650;2023-02-04T01:48:19;1.77;;;1.27;;
7475;SDS011;3779;49.216;8.650;2023-02-04T01:51:07;1.30;;;1.20;;
7475;SDS011;3779;49.216;8.650;2023-02-04T01:53:59;1.43;;;1.33;;
7475;SDS011;3779;49.216;8.650;2023-02-04T01:56:45;1.07;;;1.07;;
7475;SDS011;3779;49.216;8.650;2023-02-04T01:59:33;1.20;;;1.10;;
7475;SDS011;3779;49.216;8.650;2023-02-04T02:02:38;1.37;;;1.10;;
7475;SDS011;3779;49.216;8.650;2023-02-04T02:05:30;1.43;;;1.10;;
7475;SDS011;3779;49.216;8.650;2023-02-04T02:08:21;1.33;;;1.00;;
7475;SDS011;3779;49.216;8.650;2023-02-04T02:11:07;1.45;;;1.20;;
7475;SDS011;3779;49.216;8.650;2023-02-04T02:13:52;1.80;;;1.20;;
7475;SDS011;3779;49.216;8.650;2023-02-04T02:16:38;1.73;;;1.20;;
7475;SDS011;3779;49.216;8.650;2023-02-04T02:19:31;1.07;;;0.97;;
7475;SDS011;3779;49.216;8.650;2023-02-04T02:25:25;3.30;;;1.10;;
7475;SDS011;3779;49.216;8.650;2023-02-04T02:28:12;1.17;;;1.07;;
7475;SDS011;3779;49.216;8.650;2023-02-04T02:31:02;2.70;;;1.10;;
7475;SDS011;3779;49.216;8.650;2023-02-04T02:33:48;1.02;;;0.93;;
7475;SDS011;3779;49.216;8.650;2023-02-04T02:36:35;1.27;;;0.90;;
7475;SDS011;3779;49.216;8.650;2023-02-04T02:39:21;0.80;;;0.80;;
7475;SDS011;3779;49.216;8.650;2023-02-04T02:42:08;1.43;;;0.80;;
7475;SDS011;3779;49.216;8.650;2023-02-04T02:44:56;1.90;;;0.90;;
7475;SDS011;3779;49.216;8.650;2023-02-04T02:47:43;1.80;;;1.17;;
7475;SDS011;3779;49.216;8.650;2023-02-04T02:50:29;2.40;;;1.03;;
7475;SDS011;3779;49.216;8.650;2023-02-04T02:53:19;3.07;;;1.60;;
7475;SDS011;3779;49.216;8.650;2023-02-04T02:56:08;2.17;;;1.30;;
7475;SDS011;3779;49.216;8.650;2023-02-04T02:58:55;1.63;;;1.07;;
7475;SDS011;3779;49.216;8.650;2023-02-04T03:01:41;2.40;;;1.10;;
7475;SDS011;3779;49.216;8.650;2023-02-04T03:04:30;3.53;;;1.53;;
7475;SDS011;3779;49.216;8.650;2023-02-04T03:07:19;3.53;;;1.50;;
7475;SDS011;3779;49.216;8.650;2023-02-04T03:10:07;2.47;;;1.50;;
7475;SDS011;3779;49.216;8.650;2023-02-04T03:12:54;3.47;;;1.37;;
7475;SDS011;3779;49.216;8.650;2023-02-04T03:15:40;2.73;;;1.60;;
7475;SDS011;3779;49.216;8.650;2023-02-04T03:18:27;2.47;;;1.43;;
7475;SDS011;3779;49.216;8.650;2023-02-04T03:21:15;5.13;;;1.50;;
7475;SDS011;3779;49.216;8.650;2023-02-04T03:24:01;5.03;;;2.07;;
7475;SDS011;3779;49.216;8.650;2023-02-04T03:26:47;3.75;;;1.67;;
7475;SDS011;3779;49.216;8.650;2023-02-04T03:29:33;4.40;;;1.70;;
7475;SDS011;3779;49.216;8.650;2023-02-04T03:32:19;3.10;;;1.47;;
7475;SDS011;3779;49.216;8.650;2023-02-04T03:35:05;3.80;;;1.97;;
7475;SDS011;3779;49.216;8.650;2023-02-04T03:37:51;1.43;;;1.07;;
7475;SDS011;3779;49.216;8.650;2023-02-04T03:40:37;4.37;;;2.50;;
7475;SDS011;3779;49.216;8.650;2023-02-04T03:43:22;3.87;;;1.73;;
7475;SDS011;3779;49.216;8.650;2023-02-04T03:46:08;3.73;;;1.80;;
7475;SDS011;3779;49.216;8.650;2023-02-04T03:48:55;5.60;;;2.40;;
7475;SDS011;3779;49.216;8.650;2023-02-04T03:51:41;4.63;;;1.70;;
7475;SDS011;3779;49.216;8.650;2023-02-04T03:54:26;5.10;;;2.40;;
7475;SDS011;3779;49.216;8.650;2023-02-04T03:57:12;2.93;;;1.60;;
7475;SDS011;3779;49.216;8.650;2023-02-04T04:00:00;5.60;;;2.40;;
7475;SDS011;3779;49.216;8.650;2023-02-04T04:02:46;3.50;;;2.13;;
7475;SDS011;3779;49.216;8.650;2023-02-04T04:05:32;7.13;;;2.30;;
7475;SDS011;3779;49.216;8.650;2023-02-04T04:08:18;6.10;;;2.43;;
7475;SDS011;3779;49.216;8.650;2023-02-04T04:11:04;3.50;;;2.00;;
7475;SDS011;3779;49.216;8.650;2023-02-04T04:13:50;6.63;;;2.23;;
7475;SDS011;3779;49.216;8.650;2023-02-04T04:16:36;5.50;;;2.30;;
7475;SDS011;3779;49.216;8.650;2023-02-04T04:19:22;6.57;;;2.65;;
7475;SDS011;3779;49.216;8.650;2023-02-04T04:22:10;7.30;;;2.77;;
7475;SDS011;3779;49.216;8.650;2023-02-04T04:24:56;7.03;;;2.33;;
7475;SDS011;3779;49.216;8.650;2023-02-04T04:27:42;7.50;;;2.50;;
7475;SDS011;3779;49.216;8.650;2023-02-04T04:30:30;5.33;;;2.20;;
7475;SDS011;3779;49.216;8.650;2023-02-04T04:33:16;5.33;;;2.23;;
7475;SDS011;3779;49.216;8.650;2023-02-04T04:36:02;6.60;;;2.43;;
7475;SDS011;3779;49.216;8.650;2023-02-04T04:38:48;6.23;;;2.43;;
7475;SDS011;3779;49.216;8.650;2023-02-04T04:41:34;5.20;;;2.07;;
7475;SDS011;3779;49.216;8.650;2023-02-04T04:44:20;4.80;;;2.37;;
7475;SDS011;3779;49.216;8.650;2023-02-04T04:47:08;7.67;;;2.60;;
7475;SDS011;3779;49.216;8.650;2023-02-04T04:49:55;7.17;;;2.20;;
7475;SDS011;3779;49.216;8.650;2023-02-04T04:52:41;6.00;;;2.60;;
7475;SDS011;3779;49.216;8.650;2023-02-04T04:55:27;6.10;;;2.57;;
7475;SDS011;3779;49.216;8.650;2023-02-04T04:58:13;4.43;;;2.53;;
7475;SDS011;3779;49.216;8.650;2023-02-04T05:00:59;5.65;;;2.83;;
7475;SDS011;3779;49.216;8.650;2023-02-04T05:03:45;6.33;;;2.67;;
7475;SDS011;3779;49.216;8.650;2023-02-04T05:06:31;4.47;;;2.70;;
7475;SDS011;3779;49.216;8.650;2023-02-04T05:09:17;5.80;;;2.90;;
7475;SDS011;3779;49.216;8.650;2023-02-04T05:12:03;4.07;;;2.30;;
7475;SDS011;3779;49.216;8.650;2023-02-04T05:14:49;3.90;;;2.40;;
7475;SDS011;3779;49.216;8.650;2023-02-04T05:17:35;5.00;;;2.43;;
7475;SDS011;3779;49.216;8.650;2023-02-04T05:20:21;3.50;;;1.90;;
7475;SDS011;3779;49.216;8.650;2023-02-04T05:23:10;3.57;;;2.20;;
7475;SDS011;3779;49.216;8.650;2023-02-04T05:25:57;5.87;;;2.60;;
7475;SDS011;3779;49.216;8.650;2023-02-04T05:28:43;4.83;;;2.20;;
7475;SDS011;3779;49.216;8.650;2023-02-04T05:31:29;4.40;;;2.43;;
7475;SDS011;3779;49.216;8.650;2023-02-04T05:34:15;5.40;;;2.33;;
7475;SDS011;3779;49.216;8.650;2023-02-04T05:37:01;4.50;;;2.10;;
7475;SDS011;3779;49.216;8.650;2023-02-04T05:39:47;3.50;;;2.23;;
7475;SDS011;3779;49.216;8.650;2023-02-04T05:42:33;4.60;;;2.20;;
7475;SDS011;3779;49.216;8.650;2023-02-04T05:45:19;4.90;;;2.57;;
7475;SDS011;3779;49.216;8.650;2023-02-04T05:48:05;3.87;;;2.20;;
7475;SDS011;3779;49.216;8.650;2023-02-04T05:50:51;4.90;;;2.53;;
7475;SDS011;3779;49.216;8.650;2023-02-04T05:53:37;5.27;;;2.57;;
7475;SDS011;3779;49.216;8.650;2023-02-04T05:56:23;4.57;;;2.27;;
7475;SDS011;3779;49.216;8.650;2023-02-04T05:59:09;4.60;;;2.50;;
7475;SDS011;3779;49.216;8.650;2023-02-04T06:01:55;3.50;;;2.30;;
7475;SDS011;3779;49.216;8.650;2023-02-04T06:04:44;5.37;;;2.47;;
7475;SDS011;3779;49.216;8.650;2023-02-04T06:07:30;4.17;;;2.57;;
7475;SDS011;3779;49.216;8.650;2023-02-04T06:10:17;6.43;;;3.90;;
7475;SDS011;3779;49.216;8.650;2023-02-04T06:13:05;6.37;;;3.70;;
7475;SDS011;3779;49.216;8.650;2023-02-04T06:15:51;10.57;;;4.47;;
7475;SDS011;3779;49.216;8.650;2023-02-04T06:18:37;6.77;;;3.13;;
7475;SDS011;3779;49.216;8.650;2023-02-04T06:21:23;6.93;;;3.53;;
7475;SDS011;3779;49.216;8.650;2023-02-04T06:24:09;4.20;;;3.13;;
7475;SDS011;3779;49.216;8.650;2023-02-04T06:26:55;5.20;;;3.00;;
7475;SDS011;3779;49.216;8.650;2023-02-04T06:29:41;4.83;;;2.67;;
7475;SDS011;3779;49.216;8.650;2023-02-04T06:32:27;5.33;;;2.70;;
7475;SDS011;3779;49.216;8.650;2023-02-04T06:35:16;6.63;;;3.00;;
7475;SDS011;3779;49.216;8.650;2023-02-04T06:38:03;4.23;;;2.70;;
7475;SDS011;3779;49.216;8.650;2023-02-04T06:40:51;3.07;;;2.63;;
7475;SDS011;3779;49.216;8.650;2023-02-04T06:43:40;3.90;;;2.57;;
7475;SDS011;3779;49.216;8.650;2023-02-04T06:46:26;4.13;;;2.60;;
7475;SDS011;3779;49.216;8.650;2023-02-04T06:49:13;4.23;;;2.50;;
7475;SDS011;3779;49.216;8.650;2023-02-04T06:51:59;4.07;;;2.80;;
7475;SDS011;3779;49.216;8.650;2023-02-04T06:54:45;3.33;;;2.50;;
7475;SDS011;3779;49.216;8.650;2023-02-04T06:57:32;4.67;;;2.53;;
7475;SDS011;3779;49.216;8.650;2023-02-04T07:00:18;4.10;;;2.97;;
7475;SDS011;3779;49.216;8.650;2023-02-04T07:03:04;4.93;;;2.67;;
7475;SDS011;3779;49.216;8.650;2023-02-04T07:05:51;4.67;;;2.40;;
7475;SDS011;3779;49.216;8.650;2023-02-04T07:08:38;3.23;;;2.47;;
7475;SDS011;3779;49.216;8.650;2023-02-04T07:11:24;2.67;;;2.23;;
7475;SDS011;3779;49.216;8.650;2023-02-04T07:14:10;3.80;;;2.60;;
7475;SDS011;3779;49.216;8.650;2023-02-04T07:16:56;3.77;;;2.63;;
7475;SDS011;3779;49.216;8.650;2023-02-04T07:19:42;3.03;;;2.47;;
7475;SDS011;3779;49.216;8.650;2023-02-04T07:22:28;5.70;;;3.60;;
7475;SDS011;3779;49.216;8.650;2023-02-04T07:25:14;7.27;;;5.27;;
7475;SDS011;3779;49.216;8.650;2023-02-04T07:28:03;9.97;;;7.10;;
7475;SDS011;3779;49.216;8.650;2023-02-04T07:30:51;9.33;;;5.63;;
7475;SDS011;3779;49.216;8.650;2023-02-04T07:33:37;5.27;;;3.60;;
7475;SDS011;3779;49.216;8.650;2023-02-04T07:36:25;6.10;;;3.90;;
7475;SDS011;3779;49.216;8.650;2023-02-04T07:39:13;7.37;;;4.83;;
7475;SDS011;3779;49.216;8.650;2023-02-04T07:42:00;3.73;;;3.37;;
7475;SDS011;3779;49.216;8.650;2023-02-04T07:44:53;5.13;;;3.80;;
7475;SDS011;3779;49.216;8.650;2023-02-04T07:47:40;5.37;;;4.30;;
7475;SDS011;3779;49.216;8.650;2023-02-04T07:50:25;6.43;;;5.03;;
7475;SDS011;3779;49.216;8.650;2023-02-04T07:53:12;7.50;;;5.07;;
7475;SDS011;3779;49.216;8.650;2023-02-04T07:55:59;6.63;;;4.53;;
7475;SDS011;3779;49.216;8.650;2023-02-04T07:58:46;7.63;;;4.90;;
7475;SDS011;3779;49.216;8.650;2023-02-04T08:01:33;7.07;;;4.70;;
7475;SDS011;3779;49.216;8.650;2023-02-04T08:04:19;6.47;;;3.70;;
7475;SDS011;3779;49.216;8.650;2023-02-04T08:07:07;5.43;;;3.70;;
7475;SDS011;3779;49.216;8.650;2023-02-04T08:09:53;4.83;;;3.30;;
7475;SDS011;3779;49.216;8.650;2023-02-04T08:12:39;5.50;;;3.73;;
7475;SDS011;3779;49.216;8.650;2023-02-04T08:15:27;5.20;;;3.70;;
7475;SDS011;3779;49.216;8.650;2023-02-04T08:18:15;4.17;;;3.50;;
7475;SDS011;3779;49.216;8.650;2023-02-04T08:21:01;4.80;;;3.60;;
7475;SDS011;3779;49.216;8.650;2023-02-04T08:23:49;6.90;;;3.67;;
7475;SDS011;3779;49.216;8.650;2023-02-04T08:26:35;6.93;;;3.50;;
7475;SDS011;3779;49.216;8.650;2023-02-04T08:29:22;6.43;;;3.30;;
7475;SDS011;3779;49.216;8.650;2023-02-04T08:32:11;5.10;;;3.20;;
7475;SDS011;3779;49.216;8.650;2023-02-04T08:34:58;5.07;;;2.97;;
7475;SDS011;3779;49.216;8.650;2023-02-04T08:37:44;4.10;;;3.03;;
7475;SDS011;3779;49.216;8.650;2023-02-04T08:40:30;4.40;;;2.80;;
7475;SDS011;3779;49.216;8.650;2023-02-04T08:43:17;5.30;;;3.30;;
7475;SDS011;3779;49.216;8.650;2023-02-04T08:46:04;5.90;;;3.00;;
7475;SDS011;3779;49.216;8.650;2023-02-04T08:48:50;3.97;;;2.80;;
7475;SDS011;3779;49.216;8.650;2023-02-04T08:51:36;5.23;;;3.40;;
7475;SDS011;3779;49.216;8.650;2023-02-04T08:54:22;8.13;;;3.50;;
7475;SDS011;3779;49.216;8.650;2023-02-04T08:57:08;8.13;;;3.40;;
7475;SDS011;3779;49.216;8.650;2023-02-04T08:59:53;4.83;;;3.37;;
7475;SDS011;3779;49.216;8.650;2023-02-04T09:02:39;7.03;;;3.50;;
7475;SDS011;3779;49.216;8.650;2023-02-04T09:05:25;8.20;;;3.50;;
7475;SDS011;3779;49.216;8.650;2023-02-04T09:08:12;6.87;;;3.80;;
7475;SDS011;3779;49.216;8.650;2023-02-04T09:10:59;6.43;;;3.70;;
7475;SDS011;3779;49.216;8.650;2023-02-04T09:13:46;6.30;;;4.50;;
7475;SDS011;3779;49.216;8.650;2023-02-04T09:16:32;7.50;;;4.47;;
7475;SDS011;3779;49.216;8.650;2023-02-04T09:19:18;9.37;;;4.50;;
7475;SDS011;3779;49.216;8.650;2023-02-04T09:22:10;5.93;;;3.30;;
7475;SDS011;3779;49.216;8.650;2023-02-04T09:24:57;9.95;;;4.25;;
7475;SDS011;3779;49.216;8.650;2023-02-04T09:27:43;6.70;;;3.20;;
7475;SDS011;3779;49.216;8.650;2023-02-04T09:30:29;7.40;;;3.27;;
7475;SDS011;3779;49.216;8.650;2023-02-04T09:33:15;8.47;;;3.80;;
7475;SDS011;3779;49.216;8.650;2023-02-04T09:36:01;8.50;;;3.40;;
7475;SDS011;3779;49.216;8.650;2023-02-04T09:38:48;7.03;;;3.60;;
7475;SDS011;3779;49.216;8.650;2023-02-04T09:41:37;5.77;;;3.07;;
7475;SDS011;3779;49.216;8.650;2023-02-04T09:44:25;7.03;;;3.33;;
7475;SDS011;3779;49.216;8.650;2023-02-04T09:47:13;8.43;;;3.57;;
7475;SDS011;3779;49.216;8.650;2023-02-04T09:50:08;5.53;;;3.10;;
7475;SDS011;3779;49.216;8.650;2023-02-04T09:53:05;8.33;;;3.40;;
7475;SDS011;3779;49.216;8.650;2023-02-04T09:55:55;6.87;;;3.13;;
7475;SDS011;3779;49.216;8.650;2023-02-04T09:58:41;9.07;;;3.30;;
7475;SDS011;3779;49.216;8.650;2023-02-04T10:01:28;7.53;;;3.63;;
7475;SDS011;3779;49.216;8.650;2023-02-04T10:04:14;7.57;;;3.53;;
7475;SDS011;3779;49.216;8.650;2023-02-04T10:07:00;7.77;;;3.53;;
7475;SDS011;3779;49.216;8.650;2023-02-04T10:09:48;9.63;;;3.73;;
7475;SDS011;3779;49.216;8.650;2023-02-04T10:12:34;9.23;;;3.73;;
7475;SDS011;3779;49.216;8.650;2023-02-04T10:15:20;9.60;;;4.00;;
7475;SDS011;3779;49.216;8.650;2023-02-04T10:18:06;7.50;;;3.58;;
7475;SDS011;3779;49.216;8.650;2023-02-04T10:20:56;6.63;;;3.50;;
7475;SDS011;3779;49.216;8.650;2023-02-04T10:23:57;7.13;;;3.30;;
7475;SDS011;3779;49.216;8.650;2023-02-04T10:26:45;9.50;;;3.80;;
7475;SDS011;3779;49.216;8.650;2023-02-04T10:29:31;12.17;;;4.10;;
7475;SDS011;3779;49.216;8.650;2023-02-04T10:32:28;7.10;;;3.47;;
7475;SDS011;3779;49.216;8.650;2023-02-04T10:35:16;10.65;;;3.88;;
7475;SDS011;3779;49.216;8.650;2023-02-04T10:38:05;10.67;;;4.30;;
7475;SDS011;3779;49.216;8.650;2023-02-04T10:41:04;7.23;;;3.63;;
7475;SDS011;3779;49.216;8.650;2023-02-04T10:44:03;11.37;;;4.37;;
7475;SDS011;3779;49.216;8.650;2023-02-04T10:50:06;6.50;;;3.27;;
7475;SDS011;3779;49.216;8.650;2023-02-04T10:53:01;9.70;;;4.13;;
7475;SDS011;3779;49.216;8.650;2023-02-04T10:56:24;9.50;;;3.87;;
7475;SDS011;3779;49.216;8.650;2023-02-04T10:59:15;11.55;;;4.05;;
7475;SDS011;3779;49.216;8.650;2023-02-04T11:05:22;11.77;;;4.27;;
7475;SDS011;3779;49.216;8.650;2023-02-04T11:08:26;10.73;;;3.83;;
7475;SDS011;3779;49.216;8.650;2023-02-04T11:11:15;10.43;;;4.13;;
7475;SDS011;3779;49.216;8.650;2023-02-04T11:14:03;9.10;;;3.70;;
7475;SDS011;3779;49.216;8.650;2023-02-04T11:16:49;9.43;;;3.63;;
7475;SDS011;3779;49.216;8.650;2023-02-04T11:19:38;9.00;;;3.27;;
7475;SDS011;3779;49.216;8.650;2023-02-04T11:22:41;7.70;;;3.83;;
7475;SDS011;3779;49.216;8.650;2023-02-04T11:25:32;10.77;;;3.90;;
7475;SDS011;3779;49.216;8.650;2023-02-04T11:28:25;11.30;;;3.60;;
7475;SDS011;3779;49.216;8.650;2023-02-04T11:31:12;7.63;;;3.17;;
7475;SDS011;3779;49.216;8.650;2023-02-04T11:37:17;8.70;;;3.33;;
7475;SDS011;3779;49.216;8.650;2023-02-04T11:40:21;7.80;;;3.10;;
7475;SDS011;3779;49.216;8.650;2023-02-04T11:43:09;8.50;;;3.40;;
7475;SDS011;3779;49.216;8.650;2023-02-04T11:46:05;9.37;;;3.23;;
7475;SDS011;3779;49.216;8.650;2023-02-04T11:48:57;9.20;;;3.17;;
7475;SDS011;3779;49.216;8.650;2023-02-04T11:51:43;9.07;;;2.77;;
7475;SDS011;3779;49.216;8.650;2023-02-04T11:54:30;12.93;;;3.13;;
7475;SDS011;3779;49.216;8.650;2023-02-04T11:57:16;11.13;;;3.57;;
7475;SDS011;3779;49.216;8.650;2023-02-04T12:00:03;4.93;;;2.03;;
7475;SDS011;3779;49.216;8.650;2023-02-04T12:02:54;5.50;;;2.50;;
7475;SDS011;3779;49.216;8.650;2023-02-04T12:05:42;7.25;;;2.72;;
7475;SDS011;3779;49.216;8.650;2023-02-04T12:08:32;9.67;;;3.37;;
7475;SDS011;3779;49.216;8.650;2023-02-04T12:11:24;9.27;;;2.50;;
7475;SDS011;3779;49.216;8.650;2023-02-04T12:14:17;6.50;;;1.87;;
7475;SDS011;3779;49.216;8.650;2023-02-04T12:17:16;9.07;;;3.43;;
7475;SDS011;3779;49.216;8.650;2023-02-04T12:20:03;7.37;;;3.07;;
7475;SDS011;3779;49.216;8.650;2023-02-04T12:22:50;9.50;;;2.88;;
7475;SDS011;3779;49.216;8.650;2023-02-04T12:25:38;5.57;;;2.73;;
7475;SDS011;3779;49.216;8.650;2023-02-04T12:28:24;11.03;;;3.37;;
7475;SDS011;3779;49.216;8.650;2023-02-04T12:31:12;6.30;;;2.57;;
7475;SDS011;3779;49.216;8.650;2023-02-04T12:33:58;11.97;;;3.13;;
7475;SDS011;3779;49.216;8.650;2023-02-04T12:36:43;9.43;;;3.40;;
7475;SDS011;3779;49.216;8.650;2023-02-04T12:39:29;7.97;;;3.07;;
7475;SDS011;3779;49.216;8.650;2023-02-04T12:42:16;9.07;;;2.80;;
7475;SDS011;3779;49.216;8.650;2023-02-04T12:45:02;6.90;;;2.90;;
7475;SDS011;3779;49.216;8.650;2023-02-04T12:47:48;11.67;;;2.97;;
7475;SDS011;3779;49.216;8.650;2023-02-04T12:50:34;8.37;;;2.70;;
7475;SDS011;3779;49.216;8.650;2023-02-04T12:53:19;4.90;;;1.60;;
7475;SDS011;3779;49.216;8.650;2023-02-04T12:56:05;8.27;;;3.10;;
7475;SDS011;3779;49.216;8.650;2023-02-04T12:58:51;5.33;;;1.93;;
7475;SDS011;3779;49.216;8.650;2023-02-04T13:01:37;9.63;;;2.93;;
7475;SDS011;3779;49.216;8.650;2023-02-04T13:04:23;9.97;;;2.80;;
7475;SDS011;3779;49.216;8.650;2023-02-04T13:07:09;11.83;;;3.70;;
7475;SDS011;3779;49.216;8.650;2023-02-04T13:09:55;9.47;;;3.30;;
7475;SDS011;3779;49.216;8.650;2023-02-04T13:12:41;8.87;;;2.97;;
7475;SDS011;3779;49.216;8.650;2023-02-04T13:15:28;9.47;;;3.10;;
7475;SDS011;3779;49.216;8.650;2023-02-04T13:18:14;6.63;;;2.87;;
7475;SDS011;3779;49.216;8.650;2023-02-04T13:21:00;7.43;;;3.30;;
7475;SDS011;3779;49.216;8.650;2023-02-04T13:23:46;12.97;;;3.50;;
7475;SDS011;3779;49.216;8.650;2023-02-04T13:26:32;8.10;;;3.47;;
7475;SDS011;3779;49.216;8.650;2023-02-04T13:29:18;10.27;;;3.60;;
7475;SDS011;3779;49.216;8.650;2023-02-04T13:32:04;10.27;;;3.43;;
7475;SDS011;3779;49.216;8.650;2023-02-04T13:34:50;10.27;;;3.47;;
7475;SDS011;3779;49.216;8.650;2023-02-04T13:37:36;10.75;;;3.60;;
7475;SDS011;3779;49.216;8.650;2023-02-04T13:40:22;9.00;;;3.60;;
7475;SDS011;3779;49.216;8.650;2023-02-04T13:43:08;10.50;;;3.50;;
7475;SDS011;3779;49.216;8.650;2023-02-04T13:45:55;8.20;;;3.20;;
7475;SDS011;3779;49.216;8.650;2023-02-04T13:48:42;9.23;;;3.47;;
7475;SDS011;3779;49.216;8.650;2023-02-04T13:51:27;7.93;;;3.40;;
7475;SDS011;3779;49.216;8.650;2023-02-04T13:54:14;7.70;;;3.30;;
7475;SDS011;3779;49.216;8.650;2023-02-04T13:56:59;9.70;;;3.47;;
7475;SDS011;3779;49.216;8.650;2023-02-04T13:59:45;10.17;;;3.37;;
7475;SDS011;3779;49.216;8.650;2023-02-04T14:02:32;7.07;;;3.67;;
7475;SDS011;3779;49.216;8.650;2023-02-04T14:05:18;8.67;;;2.63;;
7475;SDS011;3779;49.216;8.650;2023-02-04T14:08:04;6.53;;;2.93;;
7475;SDS011;3779;49.216;8.650;2023-02-04T14:10:50;7.80;;;2.53;;
7475;SDS011;3779;49.216;8.650;2023-02-04T14:13:36;9.03;;;3.00;;
7475;SDS011;3779;49.216;8.650;2023-02-04T14:16:22;8.37;;;2.70;;
7475;SDS011;3779;49.216;8.650;2023-02-04T14:19:08;7.27;;;1.97;;
7475;SDS011;3779;49.216;8.650;2023-02-04T14:21:54;8.00;;;2.57;;
7475;SDS011;3779;49.216;8.650;2023-02-04T14:24:40;3.27;;;2.03;;
7475;SDS011;3779;49.216;8.650;2023-02-04T14:27:27;6.60;;;2.03;;
7475;SDS011;3779;49.216;8.650;2023-02-04T14:30:23;6.50;;;2.60;;
7475;SDS011;3779;49.216;8.650;2023-02-04T14:33:12;6.83;;;2.20;;
7475;SDS011;3779;49.216;8.650;2023-02-04T14:36:00;5.88;;;2.55;;
7475;SDS011;3779;49.216;8.650;2023-02-04T14:38:49;4.83;;;2.10;;
7475;SDS011;3779;49.216;8.650;2023-02-04T14:41:35;6.40;;;2.43;;
7475;SDS011;3779;49.216;8.650;2023-02-04T14:44:21;5.37;;;2.60;;
7475;SDS011;3779;49.216;8.650;2023-02-04T14:47:08;4.47;;;2.10;;
7475;SDS011;3779;49.216;8.650;2023-02-04T14:49:53;8.23;;;2.60;;
7475;SDS011;3779;49.216;8.650;2023-02-04T14:52:42;7.20;;;2.37;;
7475;SDS011;3779;49.216;8.650;2023-02-04T14:55:30;7.50;;;2.77;;
7475;SDS011;3779;49.216;8.650;2023-02-04T14:58:16;6.37;;;2.67;;
7475;SDS011;3779;49.216;8.650;2023-02-04T15:01:02;5.97;;;2.50;;
7475;SDS011;3779;49.216;8.650;2023-02-04T15:03:48;16.70;;;7.80;;
7475;SDS011;3779;49.216;8.650;2023-02-04T15:06:35;9.50;;;4.07;;
7475;SDS011;3779;49.216;8.650;2023-02-04T15:09:21;9.37;;;3.70;;
7475;SDS011;3779;49.216;8.650;2023-02-04T15:12:09;10.33;;;3.03;;
7475;SDS011;3779;49.216;8.650;2023-02-04T15:14:55;6.30;;;3.20;;
7475;SDS011;3779;49.216;8.650;2023-02-04T15:17:41;7.27;;;2.63;;
7475;SDS011;3779;49.216;8.650;2023-02-04T15:20:27;6.30;;;2.70;;
7475;SDS011;3779;49.216;8.650;2023-02-04T15:23:13;10.17;;;4.87;;
7475;SDS011;3779;49.216;8.650;2023-02-04T15:25:59;8.83;;;3.93;;
7475;SDS011;3779;49.216;8.650;2023-02-04T15:28:45;8.33;;;3.67;;
7475;SDS011;3779;49.216;8.650;2023-02-04T15:31:31;7.23;;;2.47;;
7475;SDS011;3779;49.216;8.650;2023-02-04T15:34:18;5.83;;;2.10;;
7475;SDS011;3779;49.216;8.650;2023-02-04T15:37:03;4.00;;;1.97;;
7475;SDS011;3779;49.216;8.650;2023-02-04T15:39:49;5.07;;;2.40;;
7475;SDS011;3779;49.216;8.650;2023-02-04T15:42:35;6.13;;;2.57;;
7475;SDS011;3779;49.216;8.650;2023-02-04T15:45:21;5.60;;;2.23;;
7475;SDS011;3779;49.216;8.650;2023-02-04T15:48:07;5.27;;;2.30;;
7475;SDS011;3779;49.216;8.650;2023-02-04T15:50:54;7.03;;;2.40;;
7475;SDS011;3779;49.216;8.650;2023-02-04T15:53:40;5.17;;;2.33;;
7475;SDS011;3779;49.216;8.650;2023-02-04T15:56:26;5.57;;;2.20;;
7475;SDS011;3779;49.216;8.650;2023-02-04T15:59:12;5.73;;;2.20;;
7475;SDS011;3779;49.216;8.650;2023-02-04T16:01:59;6.43;;;2.23;;
7475;SDS011;3779;49.216;8.650;2023-02-04T16:04:46;6.07;;;2.40;;
7475;SDS011;3779;49.216;8.650;2023-02-04T16:07:32;5.57;;;2.30;;
7475;SDS011;3779;49.216;8.650;2023-02-04T16:10:19;9.53;;;2.73;;
7475;SDS011;3779;49.216;8.650;2023-02-04T16:13:05;5.33;;;2.73;;
7475;SDS011;3779;49.216;8.650;2023-02-04T16:15:51;7.77;;;2.90;;
7475;SDS011;3779;49.216;8.650;2023-02-04T16:18:37;6.37;;;2.33;;
7475;SDS011;3779;49.216;8.650;2023-02-04T16:21:24;7.27;;;2.40;;
7475;SDS011;3779;49.216;8.650;2023-02-04T16:24:11;6.47;;;2.50;;
7475;SDS011;3779;49.216;8.650;2023-02-04T16:27:00;7.10;;;2.70;;
7475;SDS011;3779;49.216;8.650;2023-02-04T16:29:47;5.20;;;2.13;;
7475;SDS011;3779;49.216;8.650;2023-02-04T16:32:32;6.63;;;2.70;;
7475;SDS011;3779;49.216;8.650;2023-02-04T16:35:21;6.00;;;2.60;;
7475;SDS011;3779;49.216;8.650;2023-02-04T16:38:06;7.97;;;2.95;;
7475;SDS011;3779;49.216;8.650;2023-02-04T16:40:52;12.73;;;6.50;;
7475;SDS011;3779;49.216;8.650;2023-02-04T16:43:41;19.40;;;7.93;;
7475;SDS011;3779;49.216;8.650;2023-02-04T16:46:27;7.53;;;4.23;;
7475;SDS011;3779;49.216;8.650;2023-02-04T16:49:16;8.07;;;4.77;;
7475;SDS011;3779;49.216;8.650;2023-02-04T16:52:02;8.23;;;3.77;;
7475;SDS011;3779;49.216;8.650;2023-02-04T16:54:49;8.67;;;4.20;;
7475;SDS011;3779;49.216;8.650;2023-02-04T16:57:35;9.93;;;4.80;;
7475;SDS011;3779;49.216;8.650;2023-02-04T17:00:21;8.53;;;3.80;;
7475;SDS011;3779;49.216;8.650;2023-02-04T17:03:08;6.03;;;3.80;;
7475;SDS011;3779;49.216;8.650;2023-02-04T17:05:54;10.30;;;5.60;;
7475;SDS011;3779;49.216;8.650;2023-02-04T17:08:40;9.70;;;5.50;;
7475;SDS011;3779;49.216;8.650;2023-02-04T17:11:27;8.63;;;4.30;;
7475;SDS011;3779;49.216;8.650;2023-02-04T17:14:13;7.83;;;3.97;;
7475;SDS011;3779;49.216;8.650;2023-02-04T17:17:00;6.10;;;3.70;;
7475;SDS011;3779;49.216;8.650;2023-02-04T17:19:46;6.87;;;3.93;;
7475;SDS011;3779;49.216;8.650;2023-02-04T17:22:32;7.53;;;4.63;;
7475;SDS011;3779;49.216;8.650;2023-02-04T17:25:19;8.53;;;4.67;;
7475;SDS011;3779;49.216;8.650;2023-02-04T17:28:05;10.07;;;5.73;;
7475;SDS011;3779;49.216;8.650;2023-02-04T17:30:50;11.53;;;6.50;;